Dundalk, Maryland
Current Conditions -  °F | °C
As of 6:45 AM on Friday 21 Nov 2014 (Local Time) from KMTN Reporting Station
Scattered Clouds Scattered Clouds  
Wind Chill: 20°   Ceiling: Unl
Heat Index: 28°   Visibility: 10mi
Dew Point: 12°   Wind: 8mph
Humidity: 51%   Direction: 270°W
Pressure: 30.34"   Gusts: NA
Location:  39.27°N, 76.5°W
Report Text: KMTN 211145Z 27007KT 10SM SCT055 M02/M11 A3034
Loading
Personal Weather Stations






























Interactive Weather Map New forecast layout! Learn more

10-Day Weather Forecast

Advertisements
Track Severe Weather on mobile